createdAt,value
2018-12-18T00:01:32.914Z,18.60
2018-12-18T00:04:00.511Z,19.90
2018-12-18T00:06:28.135Z,19.93
2018-12-18T00:08:55.727Z,19.30
2018-12-18T00:11:23.344Z,19.37
2018-12-18T00:13:50.934Z,19.97
2018-12-18T00:16:18.552Z,19.03
2018-12-18T00:18:46.146Z,20.43
2018-12-18T00:21:13.768Z,20.67
2018-12-18T00:23:41.354Z,20.63
2018-12-18T00:26:08.975Z,20.50
2018-12-18T00:28:36.564Z,21.33
2018-12-18T00:31:04.179Z,19.43
2018-12-18T00:33:31.768Z,18.03
2018-12-18T00:35:59.462Z,20.70
2018-12-18T00:38:27.054Z,19.93
2018-12-18T00:40:54.642Z,19.70
2018-12-18T00:43:22.253Z,20.40
2018-12-18T00:45:50.132Z,19.20
2018-12-18T00:48:17.751Z,19.90
2018-12-18T00:50:45.347Z,19.00
2018-12-18T00:53:12.965Z,20.43
2018-12-18T00:55:40.554Z,18.20
2018-12-18T00:58:08.171Z,19.07
2018-12-18T01:00:35.763Z,20.10
2018-12-18T01:03:03.372Z,20.67
2018-12-18T01:05:30.962Z,19.40
2018-12-18T01:07:58.580Z,19.73
2018-12-18T01:10:26.171Z,19.23
2018-12-18T01:12:53.787Z,19.47
2018-12-18T01:15:21.381Z,20.30
2018-12-18T01:17:48.993Z,18.33
2018-12-18T01:20:16.583Z,18.80
2018-12-18T01:22:44.200Z,18.90
2018-12-18T01:25:11.789Z,18.97
2018-12-18T01:27:39.407Z,20.60
2018-12-18T01:30:06.998Z,19.63
2018-12-18T01:32:34.611Z,19.77
2018-12-18T01:35:02.203Z,19.77
2018-12-18T01:37:29.813Z,20.20
2018-12-18T01:39:57.411Z,19.73
2018-12-18T01:42:25.023Z,19.67
2018-12-18T01:44:52.618Z,19.00
2018-12-18T01:47:20.231Z,21.53
2018-12-18T01:49:47.826Z,19.83
2018-12-18T01:52:15.447Z,20.07
2018-12-18T01:54:43.040Z,19.90
2018-12-18T01:57:10.663Z,20.73
2018-12-18T02:02:47.557Z,21.17
2018-12-18T02:05:15.152Z,20.67
2018-12-18T02:07:42.771Z,19.17
2018-12-18T02:10:10.368Z,20.43
2018-12-18T02:12:37.986Z,21.03
2018-12-18T02:15:05.825Z,20.80
2018-12-18T02:17:33.547Z,21.30
2018-12-18T02:20:01.143Z,22.57
2018-12-18T02:22:28.735Z,22.97
2018-12-18T02:27:55.063Z,22.23
2018-12-18T02:30:22.659Z,22.93
2018-12-18T02:32:50.308Z,22.33
2018-12-18T02:35:17.906Z,23.23
2018-12-18T02:37:45.764Z,23.10
2018-12-18T02:40:13.380Z,22.50
2018-12-18T02:42:40.981Z,23.10
2018-12-18T02:45:08.780Z,23.80
2018-12-18T02:47:36.377Z,25.27
2018-12-18T02:50:05.050Z,25.03
2018-12-18T02:52:32.644Z,24.50
2018-12-18T02:55:00.267Z,24.10
2018-12-18T02:57:27.865Z,26.10
2018-12-18T02:59:55.623Z,25.83
2018-12-18T03:02:23.215Z,24.17
2018-12-18T03:04:50.832Z,25.67
2018-12-18T03:07:18.417Z,25.67
2018-12-18T03:09:46.034Z,24.33
2018-12-18T03:12:13.628Z,23.50
2018-12-18T03:14:41.257Z,22.87
2018-12-18T03:17:08.854Z,25.47
2018-12-18T03:19:36.473Z,23.70
2018-12-18T03:22:04.163Z,25.50
2018-12-18T03:24:31.783Z,26.80
2018-12-18T03:26:59.379Z,25.90
2018-12-18T03:29:27.238Z,26.70
2018-12-18T03:31:55.621Z,27.03
2018-12-18T03:34:28.254Z,25.83
2018-12-18T03:36:52.864Z,26.07
2018-12-18T03:39:20.459Z,26.40
2018-12-18T03:41:48.073Z,25.97
2018-12-18T03:44:15.668Z,29.13
2018-12-18T03:46:43.284Z,29.37
2018-12-18T03:49:10.885Z,27.60
2018-12-18T03:51:38.508Z,27.50
2018-12-18T03:54:06.102Z,27.07
2018-12-18T03:56:33.728Z,27.97
2018-12-18T03:59:01.331Z,28.57
2018-12-18T04:01:28.966Z,27.63
2018-12-18T04:03:56.579Z,28.63
2018-12-18T04:06:24.208Z,27.23
2018-12-18T04:08:51.807Z,27.67
2018-12-18T04:11:19.435Z,28.87
2018-12-18T04:13:47.115Z,30.93
2018-12-18T04:16:14.739Z,30.77
2018-12-18T04:18:42.421Z,27.90
2018-12-18T04:21:10.044Z,29.67
2018-12-18T04:23:37.646Z,28.97
2018-12-18T04:26:05.263Z,28.10
2018-12-18T04:28:32.858Z,24.70
2018-12-18T04:31:00.470Z,28.27
2018-12-18T04:33:28.064Z,28.50
2018-12-18T04:35:55.685Z,26.43
2018-12-18T04:38:23.291Z,29.57
2018-12-18T04:40:50.895Z,30.23
2018-12-18T04:43:18.515Z,30.83
2018-12-18T04:45:46.111Z,27.27
2018-12-18T04:48:13.727Z,28.77
2018-12-18T04:50:41.323Z,29.50
2018-12-18T04:53:08.946Z,30.17
2018-12-18T04:55:36.549Z,30.93
2018-12-18T04:58:04.165Z,31.87
2018-12-18T05:00:31.768Z,31.47
2018-12-18T05:02:59.387Z,30.20
2018-12-18T05:05:26.992Z,25.73
2018-12-18T05:07:54.614Z,29.60
2018-12-18T05:10:22.215Z,28.10
2018-12-18T05:12:49.840Z,30.40
2018-12-18T05:15:17.442Z,31.10
2018-12-18T05:17:45.060Z,30.13
2018-12-18T05:20:12.683Z,29.10
2018-12-18T05:22:40.311Z,31.10
2018-12-18T05:25:07.908Z,31.67
2018-12-18T05:27:35.527Z,32.60
2018-12-18T05:30:03.209Z,31.30
2018-12-18T05:32:30.838Z,29.10
2018-12-18T05:34:58.440Z,31.20
2018-12-18T05:37:26.060Z,28.93
2018-12-18T05:39:53.655Z,28.27
2018-12-18T05:42:21.275Z,31.97
2018-12-18T05:44:48.878Z,38.00
2018-12-18T05:47:16.501Z,124.40
2018-12-18T05:49:44.099Z,72.17
2018-12-18T05:52:11.726Z,50.53
2018-12-18T05:54:39.341Z,37.43
2018-12-18T05:57:06.945Z,35.73
2018-12-18T05:59:34.564Z,34.73
2018-12-18T06:02:02.160Z,33.40
2018-12-18T06:04:29.774Z,43.17
2018-12-18T06:06:57.383Z,37.07
2018-12-18T06:09:25.004Z,35.20
2018-12-18T06:11:52.603Z,37.97
2018-12-18T06:14:20.227Z,37.40
2018-12-18T06:16:47.829Z,34.00
2018-12-18T06:19:15.451Z,32.43
2018-12-18T06:21:43.050Z,33.60
2018-12-18T06:24:10.672Z,30.90
2018-12-18T06:26:38.283Z,31.63
2018-12-18T06:29:05.906Z,32.53
2018-12-18T06:31:33.510Z,31.00
2018-12-18T06:34:01.128Z,30.37
2018-12-18T06:36:28.725Z,31.33
2018-12-18T06:38:56.344Z,28.97
2018-12-18T06:41:23.942Z,31.20
2018-12-18T06:43:51.648Z,30.10
2018-12-18T06:46:19.247Z,28.40
2018-12-18T06:48:46.954Z,31.30
2018-12-18T06:51:14.569Z,29.70
2018-12-18T06:53:42.189Z,27.90
2018-12-18T06:56:09.778Z,29.20
2018-12-18T06:58:37.398Z,30.17
2018-12-18T07:01:05.074Z,29.53
2018-12-18T07:03:32.704Z,29.67
2018-12-18T07:06:00.301Z,29.17
2018-12-18T07:08:27.920Z,28.87
2018-12-18T07:10:55.514Z,27.77
2018-12-18T07:13:23.272Z,30.00
2018-12-18T07:15:50.871Z,26.40
2018-12-18T07:18:18.492Z,29.73
2018-12-18T07:20:46.114Z,28.90
2018-12-18T07:23:13.735Z,26.80
2018-12-18T07:25:41.331Z,28.13
2018-12-18T07:28:08.954Z,28.30
2018-12-18T07:30:36.639Z,27.70
2018-12-18T07:33:04.244Z,29.23
2018-12-18T07:35:31.863Z,26.20
2018-12-18T07:37:59.535Z,27.07
2018-12-18T07:40:27.215Z,25.87
2018-12-18T07:42:54.811Z,28.00
2018-12-18T07:45:22.429Z,26.27
2018-12-18T07:47:50.029Z,26.23
2018-12-18T07:50:17.652Z,25.40
2018-12-18T07:52:45.247Z,27.57
2018-12-18T07:55:12.870Z,25.37
2018-12-18T07:57:40.463Z,25.83
2018-12-18T08:00:08.167Z,24.67
2018-12-18T08:02:35.801Z,26.73
2018-12-18T08:05:03.422Z,24.50
2018-12-18T08:07:31.017Z,25.50
2018-12-18T08:09:58.638Z,25.63
2018-12-18T08:12:26.236Z,24.30
2018-12-18T08:14:53.856Z,26.10
2018-12-18T08:17:21.450Z,24.70
2018-12-18T08:19:49.080Z,23.87
2018-12-18T08:22:16.679Z,24.43
2018-12-18T08:24:44.299Z,22.87
2018-12-18T08:27:11.896Z,22.73
2018-12-18T08:29:40.172Z,23.50
2018-12-18T08:32:07.763Z,24.10
2018-12-18T08:34:35.379Z,23.53
2018-12-18T08:37:02.980Z,25.60
2018-12-18T08:39:30.595Z,21.90
2018-12-18T08:41:58.191Z,23.47
2018-12-18T08:44:25.811Z,22.97
2018-12-18T08:46:53.418Z,24.10
2018-12-18T08:49:21.038Z,22.57
2018-12-18T08:51:48.631Z,22.60
2018-12-18T08:54:16.261Z,22.90
2018-12-18T08:56:43.860Z,22.90
2018-12-18T08:59:11.474Z,22.73
2018-12-18T09:01:39.070Z,22.50
2018-12-18T09:04:06.691Z,24.23
2018-12-18T09:06:34.291Z,23.50
2018-12-18T09:09:01.921Z,22.20
2018-12-18T09:11:29.518Z,20.80
2018-12-18T09:13:57.132Z,21.37
2018-12-18T09:16:30.365Z,20.90
2018-12-18T09:18:58.056Z,21.67
2018-12-18T09:21:25.739Z,20.17
2018-12-18T09:23:53.336Z,22.30
2018-12-18T09:26:20.953Z,21.60
2018-12-18T09:28:48.547Z,19.10
2018-12-18T09:31:16.168Z,21.50
2018-12-18T09:33:43.764Z,20.57
2018-12-18T09:36:11.372Z,21.13
2018-12-18T09:38:44.518Z,20.57
2018-12-18T09:41:17.922Z,20.10
2018-12-18T09:43:51.257Z,20.37
2018-12-18T09:46:18.871Z,19.90
2018-12-18T09:48:46.460Z,18.83
2018-12-18T09:51:14.072Z,19.77
2018-12-18T09:53:41.660Z,20.20
2018-12-18T09:56:09.274Z,19.40
2018-12-18T09:58:36.875Z,19.60
2018-12-18T10:01:04.491Z,19.00
2018-12-18T10:03:33.602Z,18.90
2018-12-18T10:06:01.548Z,20.03
2018-12-18T10:08:29.136Z,19.70
2018-12-18T10:10:56.760Z,19.73
2018-12-18T10:13:24.359Z,18.33
2018-12-18T10:15:51.982Z,18.97
2018-12-18T10:18:19.574Z,19.27
2018-12-18T10:20:47.182Z,19.13
2018-12-18T10:23:14.863Z,20.00
2018-12-18T10:25:42.486Z,20.60
2018-12-18T10:28:10.083Z,19.73
2018-12-18T10:30:37.692Z,20.13
2018-12-18T10:33:05.363Z,20.43
2018-12-18T10:35:36.596Z,19.93
2018-12-18T10:38:02.603Z,20.00
2018-12-18T10:40:30.238Z,19.87
2018-12-18T10:42:57.836Z,20.90
2018-12-18T10:45:25.418Z,19.87
2018-12-18T10:47:53.038Z,20.47
2018-12-18T10:50:20.635Z,21.60
2018-12-18T10:52:48.254Z,21.40
2018-12-18T10:55:15.845Z,21.43
2018-12-18T10:57:43.459Z,20.40
2018-12-18T11:00:13.549Z,21.00
2018-12-18T11:02:41.165Z,20.13
2018-12-18T11:05:08.751Z,21.00
2018-12-18T11:07:36.363Z,21.53
2018-12-18T11:10:04.715Z,21.90
2018-12-18T11:12:37.815Z,21.30
2018-12-18T11:15:05.576Z,20.50
2018-12-18T11:17:33.195Z,21.30
2018-12-18T11:20:00.786Z,21.27
2018-12-18T11:22:28.395Z,20.57
2018-12-18T11:24:55.986Z,20.90
2018-12-18T11:27:23.603Z,20.63
2018-12-18T11:29:51.192Z,21.43
2018-12-18T11:32:18.814Z,21.83
2018-12-18T11:34:46.400Z,21.03
2018-12-18T11:37:14.013Z,20.80
2018-12-18T11:39:41.623Z,20.87
2018-12-18T11:42:09.235Z,20.17
2018-12-18T11:44:36.828Z,20.87
2018-12-18T11:47:04.475Z,22.60
2018-12-18T11:49:32.172Z,21.73
2018-12-18T11:51:59.760Z,20.93
2018-12-18T11:54:27.373Z,23.63
2018-12-18T11:56:54.966Z,22.17
2018-12-18T11:59:22.578Z,22.10
2018-12-18T12:01:50.167Z,22.40
2018-12-18T12:04:17.785Z,20.93
2018-12-18T12:06:45.377Z,22.70
2018-12-18T12:09:12.989Z,22.63
2018-12-18T12:11:40.579Z,21.57
2018-12-18T12:14:08.200Z,24.37
2018-12-18T12:16:35.793Z,22.40
2018-12-18T12:19:03.406Z,23.20
2018-12-18T12:21:30.995Z,23.30
2018-12-18T12:23:58.607Z,25.23
2018-12-18T12:26:31.851Z,21.97
2018-12-18T12:28:59.466Z,23.53
2018-12-18T12:31:27.059Z,24.13
2018-12-18T12:33:54.662Z,22.60
2018-12-18T12:36:22.257Z,23.17
2018-12-18T12:38:49.873Z,22.80
2018-12-18T12:41:17.470Z,22.77
2018-12-18T12:43:45.091Z,23.93
2018-12-18T12:46:12.680Z,23.50
2018-12-18T12:48:45.838Z,21.60
2018-12-18T12:51:13.439Z,22.03
2018-12-18T12:53:41.043Z,23.40
2018-12-18T12:56:08.631Z,22.10
2018-12-18T12:58:36.247Z,22.83
2018-12-18T13:01:03.840Z,23.13
2018-12-18T13:03:31.455Z,22.47
2018-12-18T13:05:59.043Z,21.97
2018-12-18T13:08:26.635Z,23.20
2018-12-18T13:10:54.247Z,22.63
2018-12-18T13:13:21.849Z,21.40
2018-12-18T13:15:49.460Z,19.87
2018-12-18T13:18:17.050Z,20.00
2018-12-18T13:20:44.669Z,20.67
2018-12-18T13:23:12.268Z,20.90
2018-12-18T13:25:39.884Z,19.70
2018-12-18T13:28:07.477Z,20.47
2018-12-18T13:30:35.094Z,21.57
2018-12-18T13:33:02.679Z,21.60
2018-12-18T13:35:30.302Z,20.10
2018-12-18T13:37:57.976Z,20.97
2018-12-18T13:40:25.587Z,20.97
2018-12-18T13:42:53.187Z,20.30
2018-12-18T13:45:20.802Z,19.27
2018-12-18T13:47:48.396Z,19.57
2018-12-18T13:50:16.007Z,20.40
2018-12-18T13:52:43.614Z,19.80
2018-12-18T13:55:11.232Z,19.40
2018-12-18T13:57:38.825Z,20.03
2018-12-18T14:00:06.539Z,18.80
2018-12-18T14:02:34.131Z,21.10
2018-12-18T14:05:01.762Z,19.50
2018-12-18T14:07:29.368Z,18.27
2018-12-18T14:09:56.990Z,19.83
2018-12-18T14:12:24.596Z,18.37
2018-12-18T14:14:53.086Z,19.00
2018-12-18T14:17:20.706Z,18.70
2018-12-18T14:19:48.339Z,18.10
2018-12-18T14:22:15.967Z,18.23
2018-12-18T14:24:43.621Z,17.23
2018-12-18T14:27:11.221Z,18.03
2018-12-18T14:29:38.857Z,15.80
2018-12-18T14:32:06.539Z,15.57
2018-12-18T14:34:34.184Z,17.13
2018-12-18T14:37:01.792Z,17.07
2018-12-18T14:39:29.394Z,17.10
2018-12-18T14:41:57.012Z,16.90
2018-12-18T14:44:32.115Z,17.23
2018-12-18T14:46:59.734Z,16.80
2018-12-18T14:49:27.330Z,17.07
2018-12-18T14:51:54.942Z,17.33
2018-12-18T14:54:22.571Z,17.77
2018-12-18T14:56:50.213Z,17.00
2018-12-18T14:59:18.275Z,16.30
2018-12-18T15:01:45.890Z,17.40
2018-12-18T15:04:13.562Z,17.10
2018-12-18T15:06:41.243Z,16.57
2018-12-18T15:09:08.839Z,16.97
2018-12-18T15:11:36.536Z,17.50
2018-12-18T15:14:04.211Z,18.03
2018-12-18T15:16:31.836Z,17.20
2018-12-18T15:18:59.431Z,16.80
2018-12-18T15:21:27.047Z,16.70
2018-12-18T15:23:54.647Z,17.97
2018-12-18T15:26:22.263Z,17.80
2018-12-18T15:28:49.857Z,16.07
2018-12-18T15:31:17.470Z,18.37
2018-12-18T15:33:45.066Z,17.40
2018-12-18T15:36:12.682Z,16.63
2018-12-18T15:38:40.272Z,16.83
2018-12-18T15:41:07.897Z,15.37
2018-12-18T15:43:35.500Z,15.20
2018-12-18T15:46:03.118Z,16.07
2018-12-18T15:48:30.722Z,15.57
2018-12-18T15:50:58.340Z,14.10
2018-12-18T15:53:25.929Z,15.00
2018-12-18T15:55:53.544Z,15.40
2018-12-18T15:58:21.152Z,15.53
2018-12-18T16:00:48.791Z,15.13
2018-12-18T16:03:17.122Z,14.77
2018-12-18T16:05:45.019Z,15.43
2018-12-18T16:08:12.616Z,14.70
2018-12-18T16:10:40.241Z,14.70
2018-12-18T16:13:07.833Z,13.83
2018-12-18T16:15:35.449Z,14.00
2018-12-18T16:18:03.042Z,14.67
2018-12-18T16:20:30.840Z,12.67
2018-12-18T16:22:58.436Z,13.10
2018-12-18T16:25:26.035Z,14.90
2018-12-18T16:27:53.650Z,13.50
2018-12-18T16:30:21.242Z,13.47
2018-12-18T16:32:48.867Z,13.90
2018-12-18T16:35:16.463Z,13.70
2018-12-18T16:37:44.080Z,13.33
2018-12-18T16:40:11.683Z,14.03
2018-12-18T16:42:39.304Z,13.50
2018-12-18T16:45:07.163Z,13.07
2018-12-18T16:47:34.787Z,13.50
2018-12-18T16:50:02.382Z,17.17
2018-12-18T16:52:30.005Z,14.67
2018-12-18T16:54:57.605Z,13.90
2018-12-18T16:57:25.262Z,14.60
2018-12-18T16:59:52.857Z,13.33
2018-12-18T17:02:20.861Z,14.33
2018-12-18T17:04:48.477Z,13.83
2018-12-18T17:07:16.123Z,14.50
2018-12-18T17:09:43.717Z,15.27
2018-12-18T17:12:11.331Z,19.37
2018-12-18T17:14:39.363Z,15.07
2018-12-18T17:17:07.014Z,19.87
2018-12-18T17:19:34.611Z,15.57
2018-12-18T17:22:02.234Z,15.93
2018-12-18T17:24:29.828Z,15.67
2018-12-18T17:26:57.441Z,13.73
2018-12-18T17:29:25.037Z,13.57
2018-12-18T17:31:52.656Z,14.30
2018-12-18T17:34:20.702Z,14.00
2018-12-18T17:36:48.349Z,13.73
2018-12-18T17:39:15.943Z,13.80
2018-12-18T17:41:43.567Z,14.07
2018-12-18T17:44:11.165Z,14.43
2018-12-18T17:46:38.796Z,14.43
2018-12-18T17:49:06.488Z,13.53
2018-12-18T17:51:34.077Z,14.10
2018-12-18T17:54:01.699Z,13.57
2018-12-18T17:56:29.292Z,12.70
2018-12-18T17:58:56.907Z,14.03
2018-12-18T18:01:24.578Z,15.87
2018-12-18T18:03:52.205Z,14.00
2018-12-18T18:06:19.795Z,14.87
2018-12-18T18:08:47.410Z,14.47
2018-12-18T18:11:15.004Z,13.80
2018-12-18T18:13:42.620Z,14.50
2018-12-18T18:16:10.208Z,13.83
2018-12-18T18:18:37.830Z,12.70
2018-12-18T18:21:05.424Z,13.80
2018-12-18T18:23:33.036Z,14.63
2018-12-18T18:26:00.718Z,14.37
2018-12-18T18:28:28.339Z,14.23
2018-12-18T18:30:55.928Z,15.47
2018-12-18T18:33:23.572Z,13.50
2018-12-18T18:35:51.176Z,13.30
2018-12-18T18:38:18.809Z,13.67
2018-12-18T18:40:46.450Z,14.63
2018-12-18T18:43:14.126Z,14.37
2018-12-18T18:45:41.731Z,14.80
2018-12-18T18:48:09.354Z,14.57
2018-12-18T18:50:36.955Z,13.87
2018-12-18T18:53:04.566Z,14.20
2018-12-18T18:55:32.167Z,15.33
2018-12-18T18:57:59.790Z,15.17
2018-12-18T19:00:27.384Z,15.10
2018-12-18T19:02:54.998Z,14.17
2018-12-18T19:05:22.589Z,16.27
2018-12-18T19:07:56.274Z,15.60
2018-12-18T19:10:20.011Z,14.80
2018-12-18T19:12:47.607Z,15.00
2018-12-18T19:15:15.223Z,14.87
2018-12-18T19:17:42.820Z,15.87
2018-12-18T19:20:10.440Z,14.47
2018-12-18T19:22:38.031Z,14.50
2018-12-18T19:25:05.873Z,15.10
2018-12-18T19:27:33.474Z,14.60
2018-12-18T19:30:02.190Z,15.23
2018-12-18T19:32:29.851Z,14.60
2018-12-18T19:34:57.464Z,13.47
2018-12-18T19:37:25.066Z,13.90
2018-12-18T19:39:52.969Z,13.20
2018-12-18T19:42:20.644Z,14.30
2018-12-18T19:44:48.344Z,14.60
2018-12-18T19:47:16.022Z,14.77
2018-12-18T19:49:43.640Z,15.87
2018-12-18T19:52:11.234Z,22.17
2018-12-18T19:54:38.851Z,17.73
2018-12-18T19:57:06.443Z,22.33
2018-12-18T19:59:34.057Z,30.80
2018-12-18T20:02:01.653Z,13.90
2018-12-18T20:04:29.271Z,26.30
2018-12-18T20:06:56.855Z,14.20
2018-12-18T20:09:24.481Z,18.77
2018-12-18T20:11:52.988Z,16.40
2018-12-18T20:14:20.629Z,15.87
2018-12-18T20:16:48.220Z,11.70
2018-12-18T20:19:15.840Z,12.60
2018-12-18T20:21:43.428Z,14.90
2018-12-18T20:24:11.068Z,14.43
2018-12-18T20:26:38.658Z,12.97
2018-12-18T20:29:06.250Z,12.03
2018-12-18T20:31:33.864Z,13.57
2018-12-18T20:34:01.459Z,14.00
2018-12-18T20:36:29.076Z,14.37
2018-12-18T20:38:56.668Z,13.23
2018-12-18T20:41:24.276Z,13.43
2018-12-18T20:43:51.881Z,13.03
2018-12-18T20:46:19.505Z,13.17
2018-12-18T20:48:47.104Z,13.90
2018-12-18T20:51:14.712Z,13.93
2018-12-18T20:53:42.305Z,13.63
2018-12-18T20:56:09.928Z,13.70
2018-12-18T20:58:37.531Z,13.40
2018-12-18T21:01:05.148Z,13.87
2018-12-18T21:03:32.748Z,13.80
2018-12-18T21:06:00.370Z,12.43
2018-12-18T21:08:27.977Z,13.23
2018-12-18T21:10:55.600Z,12.60
2018-12-18T21:13:30.500Z,12.30
2018-12-18T21:15:58.260Z,11.97
2018-12-18T21:18:25.857Z,12.23
2018-12-18T21:20:53.452Z,11.93
2018-12-18T21:23:21.062Z,13.40
2018-12-18T21:25:48.658Z,12.10
2018-12-18T21:28:16.277Z,11.50
2018-12-18T21:30:43.866Z,12.87
2018-12-18T21:33:11.487Z,12.23
2018-12-18T21:35:39.098Z,12.67
2018-12-18T21:38:06.712Z,12.20
2018-12-18T21:40:34.311Z,11.60
2018-12-18T21:43:01.927Z,13.97
2018-12-18T21:45:29.521Z,14.17
2018-12-18T21:47:57.141Z,12.23
2018-12-18T21:50:24.733Z,13.40
2018-12-18T21:52:52.334Z,13.03
2018-12-18T21:55:19.934Z,13.73
2018-12-18T21:57:47.547Z,14.50
2018-12-18T22:00:15.137Z,14.63
2018-12-18T22:02:42.768Z,12.30
2018-12-18T22:05:10.362Z,12.50
2018-12-18T22:07:38.072Z,13.50
2018-12-18T22:10:07.316Z,11.40
2018-12-18T22:12:34.931Z,12.10
2018-12-18T22:15:02.531Z,10.80
2018-12-18T22:17:30.150Z,11.47
2018-12-18T22:19:57.744Z,11.20
2018-12-18T22:22:25.371Z,12.50
2018-12-18T22:24:52.966Z,13.10
2018-12-18T22:27:20.558Z,12.30
2018-12-18T22:29:48.177Z,12.40
2018-12-18T22:32:15.767Z,12.13
2018-12-18T22:34:43.381Z,13.07
2018-12-18T22:37:10.968Z,12.07
2018-12-18T22:39:38.593Z,10.97
2018-12-18T22:42:06.192Z,10.07
2018-12-18T22:44:33.809Z,14.17
2018-12-18T22:47:01.398Z,12.37
2018-12-18T22:49:29.018Z,12.13
2018-12-18T22:51:56.616Z,10.77
2018-12-18T22:54:24.227Z,11.37
2018-12-18T22:56:51.818Z,11.70
2018-12-18T22:59:19.431Z,12.80
2018-12-18T23:01:47.099Z,11.10
2018-12-18T23:04:14.708Z,11.27
2018-12-18T23:06:42.391Z,11.60
2018-12-18T23:09:11.987Z,11.30
2018-12-18T23:11:39.582Z,11.67
2018-12-18T23:14:07.199Z,9.57
2018-12-18T23:16:34.796Z,10.20
2018-12-18T23:19:02.423Z,10.50
2018-12-18T23:21:30.015Z,9.50
2018-12-18T23:23:57.609Z,11.43
2018-12-18T23:26:25.365Z,8.63
2018-12-18T23:28:52.950Z,9.93
2018-12-18T23:31:20.568Z,10.87
2018-12-18T23:33:48.159Z,11.40
2018-12-18T23:36:15.773Z,12.23
2018-12-18T23:38:43.372Z,11.90
2018-12-18T23:41:10.991Z,10.23
2018-12-18T23:43:38.581Z,12.40
2018-12-18T23:46:06.196Z,12.63
2018-12-18T23:48:39.569Z,12.27
2018-12-18T23:51:03.620Z,11.63
2018-12-18T23:53:31.211Z,13.13
2018-12-18T23:55:58.828Z,10.83
2018-12-18T23:58:26.423Z,13.67
